createdAt,value
2019-04-28T00:07:33.074Z,58.10
2019-04-28T00:17:38.348Z,57.40
2019-04-28T00:27:43.603Z,57.60
2019-04-28T00:37:49.351Z,58.20
2019-04-28T00:47:54.610Z,57.50
2019-04-28T00:58:00.921Z,57.60
2019-04-28T01:08:06.435Z,57.90
2019-04-28T01:18:23.959Z,57.80
2019-04-28T01:28:30.667Z,57.80
2019-04-28T01:38:35.982Z,57.80
2019-04-28T01:48:41.350Z,58.00
2019-04-28T01:58:46.627Z,58.00
2019-04-28T02:08:51.922Z,58.10
2019-04-28T02:18:57.178Z,58.10
2019-04-28T02:29:02.520Z,58.10
2019-04-28T02:39:10.600Z,57.90
2019-04-28T02:49:21.533Z,58.00
2019-04-28T02:59:26.911Z,58.10
2019-04-28T03:09:32.344Z,58.50
2019-04-28T03:19:41.506Z,58.80
2019-04-28T03:29:56.754Z,59.00
2019-04-28T03:40:02.706Z,59.10
2019-04-28T03:50:10.462Z,59.00
2019-04-28T04:00:15.642Z,58.90
2019-04-28T04:10:44.926Z,59.10
2019-04-28T04:20:51.190Z,59.10
2019-04-28T04:30:56.747Z,59.40
2019-04-28T04:41:02.036Z,59.20
2019-04-28T04:51:07.360Z,59.10
2019-04-28T05:01:22.384Z,59.20
2019-04-28T05:11:27.712Z,59.00
2019-04-28T05:21:33.554Z,58.80
2019-04-28T05:31:40.157Z,58.80
2019-04-28T05:41:45.847Z,58.70
2019-04-28T05:51:52.921Z,58.50
2019-04-28T06:02:05.209Z,58.50
2019-04-28T06:12:12.516Z,58.50
2019-04-28T06:22:18.083Z,58.70
2019-04-28T06:32:23.524Z,58.70
2019-04-28T06:42:28.843Z,58.50
2019-04-28T06:52:35.116Z,58.60
2019-04-28T07:02:40.429Z,58.70
2019-04-28T07:12:45.943Z,59.10
2019-04-28T07:22:51.219Z,58.40
2019-04-28T07:32:56.735Z,57.90
2019-04-28T07:43:02.296Z,57.50
2019-04-28T07:53:13.543Z,57.90
2019-04-28T08:03:19.068Z,57.00
2019-04-28T08:13:24.823Z,56.50
2019-04-28T08:23:30.168Z,56.30
2019-04-28T08:33:40.951Z,56.00
2019-04-28T08:43:46.281Z,55.60
2019-04-28T08:53:51.578Z,55.50
2019-04-28T09:03:56.885Z,55.40
2019-04-28T09:14:02.172Z,54.70
2019-04-28T09:24:07.424Z,54.60
2019-04-28T09:34:12.764Z,54.30
2019-04-28T09:44:18.946Z,53.80
2019-04-28T09:54:24.253Z,53.70
2019-04-28T10:04:40.978Z,54.10
2019-04-28T10:14:36.471Z,53.00
2019-04-28T10:24:41.738Z,53.60
2019-04-28T10:34:54.757Z,53.30
2019-04-28T10:44:54.073Z,52.50
2019-04-28T10:54:59.425Z,51.00
2019-04-28T11:05:12.740Z,50.70
2019-04-28T11:15:34.400Z,50.00
2019-04-28T11:25:40.064Z,49.70
2019-04-28T11:35:45.742Z,48.70
2019-04-28T11:45:51.066Z,47.40
2019-04-28T11:55:57.374Z,45.50
2019-04-28T12:06:02.720Z,43.00
2019-04-28T12:16:18.280Z,41.40
2019-04-28T12:26:23.615Z,40.20
2019-04-28T12:36:29.191Z,39.60
2019-04-28T12:46:35.031Z,39.40
2019-04-28T12:56:40.906Z,39.00
2019-04-28T13:07:01.951Z,39.10
2019-04-28T13:17:07.848Z,37.70
2019-04-28T13:27:13.842Z,38.10
2019-04-28T13:37:19.521Z,36.30
2019-04-28T13:47:25.498Z,35.30
2019-04-28T13:57:30.768Z,34.50
2019-04-28T14:07:36.034Z,36.30
2019-04-28T14:17:41.372Z,38.20
2019-04-28T14:27:46.640Z,36.80
2019-04-28T14:37:51.931Z,35.60
2019-04-28T14:47:57.247Z,36.50
2019-04-28T14:58:02.527Z,35.70
2019-04-28T15:08:19.411Z,36.50
2019-04-28T15:18:24.867Z,35.30
2019-04-28T15:28:30.554Z,33.10
2019-04-28T15:38:35.829Z,30.50
2019-04-28T15:48:41.319Z,30.40
2019-04-28T15:58:46.587Z,30.20
2019-04-28T16:08:51.998Z,29.80
2019-04-28T16:18:57.347Z,34.10
2019-04-28T16:29:02.852Z,36.70
2019-04-28T16:39:08.391Z,37.50
2019-04-28T16:49:13.732Z,38.70
2019-04-28T16:59:36.748Z,39.10
2019-04-28T17:09:42.114Z,39.60
2019-04-28T17:19:47.960Z,40.30
2019-04-28T17:29:53.334Z,40.40
2019-04-28T17:39:59.060Z,41.10
2019-04-28T17:50:07.131Z,41.40
2019-04-28T18:00:24.888Z,41.70
2019-04-28T18:10:31.907Z,41.80
2019-04-28T18:20:38.927Z,42.40
2019-04-28T18:30:51.469Z,42.70
2019-04-28T18:41:22.248Z,43.20
2019-04-28T18:51:27.588Z,43.80
2019-04-28T19:01:40.271Z,44.10
2019-04-28T19:11:49.330Z,44.40
2019-04-28T19:21:55.577Z,44.80
2019-04-28T19:32:00.947Z,45.20
2019-04-28T19:42:06.311Z,45.70
2019-04-28T19:52:11.696Z,46.40
2019-04-28T20:02:17.111Z,46.80
2019-04-28T20:12:22.424Z,48.10
2019-04-28T20:22:27.688Z,48.00
2019-04-28T20:32:43.536Z,48.40
2019-04-28T20:43:02.227Z,48.50
2019-04-28T20:53:07.545Z,48.50
2019-04-28T21:03:12.851Z,48.70
2019-04-28T21:13:18.129Z,49.00
2019-04-28T21:23:23.379Z,49.30
2019-04-28T21:33:28.657Z,49.60
2019-04-28T21:43:53.040Z,49.50
2019-04-28T21:53:58.379Z,50.10
2019-04-28T22:04:04.080Z,50.00
2019-04-28T22:14:09.326Z,50.10
2019-04-28T22:24:26.803Z,50.10
2019-04-28T22:34:32.108Z,50.60
2019-04-28T22:44:37.356Z,51.50
2019-04-28T22:55:07.711Z,51.10
2019-04-28T23:05:13.327Z,51.20
2019-04-28T23:15:18.823Z,51.50
2019-04-28T23:25:24.079Z,51.90
2019-04-28T23:35:29.356Z,52.10
2019-04-28T23:45:34.779Z,52.20
2019-04-28T23:55:40.103Z,52.80
